• Join FlightAware (Why Join?)
  • Login
  • US Flag 
04:20AM EDT


 

Airport Tracker/Info


-or-


 

Live Flight TrackerFlight Track Log ✈ N897MB ✈ 30-Jul-2013 ✈ 8A6 - KSOP

Flight Track Log - Related Links

Times and Time Zones

All times are in EDT time to prevent confusion due to time zone crossing. See the N897MB flight status page for this flight to view local times or setup timezone preferences in your user account.

Time Position Orientation Groundspeed Altitude Reporting Facility
EDT Latitude Longitude Course Direction KTS MPH feet Rate Location/Type
06:23PM 35.2106 -80.5792 88° East 97 112 3,300  Level Atlanta Center
06:24PM 35.2075 -80.5436 96° East 93 107 3,300  Level Atlanta Center
06:25PM 35.2108 -80.5131 82° East 94 108 3,400  Climbing Atlanta Center
06:26PM 35.2119 -80.4850 87° East 97 112 3,400  Level Atlanta Center
06:27PM 35.2108 -80.4469 92° East 100 115 3,400  Level Atlanta Center
06:28PM 35.2185 -80.4658 88° East  Level Estimated
06:28PM 35.2078 -80.4114 96° East 103 119 3,400  Level Atlanta Center
06:29PM 35.2194 -80.4249 88° East  Level Estimated
06:29PM 35.2067 -80.3783 92° East 103 119 3,400  Level Atlanta Center
06:30PM 35.2078 -80.3453 88° East 99 114 3,400  Level Atlanta Center
06:31PM 35.2089 -80.3097 88° East 100 115 3,400  Level Atlanta Center
06:32PM 35.2119 -80.2764 84° East 104 120 3,400  Level Atlanta Center
06:33PM 35.2150 -80.2383 84° East 103 119 3,400 -60 Level Atlanta Center
06:34PM 35.2119 -80.2053 96° East 103 119 3,300 -120 Descending Atlanta Center
06:36PM 35.2131 -80.1576 88° East  Level FlightAware Approximate
06:43PM 35.2214 -79.8717 87° East  Level FlightAware Approximate
06:44PM 35.2229 -79.8308 87° East  Level FlightAware Approximate
06:45PM 35.2244 -79.7900 87° East  Level FlightAware Approximate
06:46PM 35.2258 -79.7491 87° East  Level FlightAware Approximate
06:47PM 35.2273 -79.7083 88° East  Level FlightAware Approximate
06:48PM 35.2287 -79.6674 88° East  Level FlightAware Approximate
06:49PM 35.2301 -79.6266 88° East  Level FlightAware Approximate
06:50PM 35.2315 -79.5857 88° East  Level FlightAware Approximate
06:51PM 35.2329 -79.5449 88° East  Level FlightAware Approximate
06:52PM 35.2333 -79.5040 90° East  Level FlightAware Approximate
06:53PM 35.2333 -79.4631 90° East  Level FlightAware Approximate
06:54PM 35.2333 -79.4222 90° East  Level FlightAware Approximate
06:55PM 35.2333 -79.3833 90° East  Level FlightAware Approximate
06:56PM 35.2380 -79.3883 90° East  Level Estimated